createdAt,value
2019-05-13T00:00:59.295Z,5.40
2019-05-13T00:01:59.335Z,6.10
2019-05-13T00:02:59.372Z,5.90
2019-05-13T00:03:59.412Z,6.30
2019-05-13T00:04:59.441Z,6.60
2019-05-13T00:05:59.483Z,5.70
2019-05-13T00:06:59.529Z,6.10
2019-05-13T00:07:59.554Z,5.70
2019-05-13T00:08:59.590Z,6.50
2019-05-13T00:09:59.625Z,7.00
2019-05-13T00:11:00.853Z,4.80
2019-05-13T00:11:59.703Z,6.00
2019-05-13T00:12:59.750Z,7.50
2019-05-13T00:13:59.792Z,8.10
2019-05-13T00:14:59.823Z,10.60
2019-05-13T00:15:59.850Z,6.70
2019-05-13T00:16:59.895Z,7.30
2019-05-13T00:17:59.923Z,6.70
2019-05-13T00:18:59.963Z,8.30
2019-05-13T00:20:00.004Z,7.30
2019-05-13T00:21:00.034Z,7.10
2019-05-13T00:22:00.082Z,7.80
2019-05-13T00:23:00.109Z,8.60
2019-05-13T00:24:00.145Z,8.40
2019-05-13T00:25:00.180Z,9.30
2019-05-13T00:26:00.218Z,7.00
2019-05-13T00:27:00.256Z,8.00
2019-05-13T00:28:00.292Z,7.80
2019-05-13T00:29:00.326Z,7.90
2019-05-13T00:30:00.364Z,7.80
2019-05-13T00:31:00.403Z,8.30
2019-05-13T00:32:00.438Z,8.50
2019-05-13T00:33:00.475Z,7.10
2019-05-13T00:34:00.512Z,6.30
2019-05-13T00:35:00.560Z,11.40
2019-05-13T00:36:00.587Z,6.90
2019-05-13T00:37:08.746Z,7.40
2019-05-13T00:38:00.660Z,8.30
2019-05-13T00:39:00.730Z,8.10
2019-05-13T00:40:00.735Z,6.70
2019-05-13T00:41:00.769Z,6.50
2019-05-13T00:42:00.808Z,8.70
2019-05-13T00:43:00.843Z,6.80
2019-05-13T00:44:00.881Z,7.40
2019-05-13T00:45:01.118Z,8.60
2019-05-13T00:46:01.110Z,6.20
2019-05-13T00:47:00.991Z,6.70
2019-05-13T00:48:01.029Z,6.60
2019-05-13T00:49:01.064Z,6.80
2019-05-13T00:50:03.503Z,6.30
2019-05-13T00:51:03.510Z,6.70
2019-05-13T00:52:01.173Z,4.90
2019-05-13T00:53:01.210Z,10.10
2019-05-13T00:54:01.247Z,7.90
2019-05-13T00:55:01.284Z,5.10
2019-05-13T00:56:01.321Z,6.80
2019-05-13T00:57:01.356Z,7.30
2019-05-13T00:58:01.392Z,6.20
2019-05-13T00:59:03.687Z,7.50
2019-05-13T01:00:03.529Z,9.00
2019-05-13T01:01:03.645Z,7.00
2019-05-13T01:02:03.606Z,5.50
2019-05-13T01:03:03.773Z,9.10
2019-05-13T01:04:03.754Z,6.40
2019-05-13T01:05:04.142Z,6.40
2019-05-13T01:06:04.035Z,8.80
2019-05-13T01:07:04.129Z,6.50
2019-05-13T01:08:03.906Z,7.00
2019-05-13T01:09:04.047Z,6.80
2019-05-13T01:10:04.048Z,6.60
2019-05-13T01:11:04.073Z,6.80
2019-05-13T01:12:04.115Z,6.70
2019-05-13T01:13:04.278Z,7.20
2019-05-13T01:14:04.073Z,7.90
2019-05-13T01:15:04.131Z,7.40
2019-05-13T01:16:03.734Z,7.70
2019-05-13T01:17:03.904Z,6.90
2019-05-13T01:18:04.092Z,6.50
2019-05-13T01:19:04.242Z,5.30
2019-05-13T01:20:04.112Z,5.50
2019-05-13T01:21:04.321Z,7.70
2019-05-13T01:22:03.398Z,6.70
2019-05-13T01:23:03.637Z,5.60
2019-05-13T01:24:03.677Z,7.80
2019-05-13T01:25:03.958Z,6.20
2019-05-13T01:26:03.935Z,8.30
2019-05-13T01:27:03.860Z,5.20
2019-05-13T01:28:04.519Z,6.50
2019-05-13T01:29:04.205Z,7.40
2019-05-13T01:30:04.182Z,5.80
2019-05-13T01:31:04.156Z,5.40
2019-05-13T01:32:04.522Z,7.00
2019-05-13T01:33:04.370Z,7.00
2019-05-13T01:34:04.025Z,7.70
2019-05-13T01:35:04.579Z,5.90
2019-05-13T01:36:05.137Z,8.00
2019-05-13T01:37:04.302Z,8.50
2019-05-13T01:38:04.598Z,6.40
2019-05-13T01:39:04.237Z,6.30
2019-05-13T01:40:05.091Z,9.50
2019-05-13T01:41:04.451Z,5.30
2019-05-13T01:42:03.737Z,6.30
2019-05-13T01:43:03.697Z,6.40
2019-05-13T01:44:03.953Z,6.10
2019-05-13T01:45:04.629Z,6.20
2019-05-13T01:46:04.459Z,6.80
2019-05-13T01:47:04.500Z,6.10
2019-05-13T01:48:07.449Z,9.30
2019-05-13T01:49:04.979Z,6.80
2019-05-13T01:50:04.069Z,6.90
2019-05-13T01:51:03.902Z,9.30
2019-05-13T01:52:03.941Z,8.10
2019-05-13T01:53:04.137Z,6.30
2019-05-13T01:54:04.208Z,8.10
2019-05-13T01:55:04.134Z,7.50
2019-05-13T01:56:04.016Z,8.30
2019-05-13T01:57:04.413Z,7.90
2019-05-13T01:58:04.497Z,6.50
2019-05-13T01:59:03.864Z,6.90
2019-05-13T02:00:04.718Z,6.70
2019-05-13T02:01:05.022Z,4.90
2019-05-13T02:02:03.747Z,7.40
2019-05-13T02:03:04.178Z,8.10
2019-05-13T02:04:04.226Z,6.90
2019-05-13T02:05:04.070Z,6.30
2019-05-13T02:06:04.021Z,7.50
2019-05-13T02:07:04.312Z,8.40
2019-05-13T02:08:04.604Z,6.00
2019-05-13T02:09:04.089Z,8.20
2019-05-13T02:10:04.334Z,6.20
2019-05-13T02:11:04.619Z,7.50
2019-05-13T02:12:04.847Z,9.10
2019-05-13T02:13:04.165Z,5.20
2019-05-13T02:14:05.639Z,5.70
2019-05-13T02:15:04.515Z,6.30
2019-05-13T02:16:04.494Z,7.90
2019-05-13T02:17:04.497Z,5.80
2019-05-13T02:18:04.312Z,7.50
2019-05-13T02:19:04.476Z,4.90
2019-05-13T02:20:04.389Z,5.00
2019-05-13T02:21:05.611Z,5.70
2019-05-13T02:22:04.457Z,12.10
2019-05-13T02:23:04.491Z,6.40
2019-05-13T02:24:04.583Z,8.10
2019-05-13T02:25:04.655Z,8.10
2019-05-13T02:26:04.742Z,6.90
2019-05-13T02:27:04.640Z,7.90
2019-05-13T02:28:09.439Z,7.30
2019-05-13T02:29:04.708Z,8.80
2019-05-13T02:30:05.859Z,9.00
2019-05-13T02:31:04.781Z,6.50
2019-05-13T02:32:04.818Z,6.70
2019-05-13T02:33:04.856Z,5.50
2019-05-13T02:34:04.897Z,6.50
2019-05-13T02:35:04.931Z,7.20
2019-05-13T02:36:04.978Z,8.10
2019-05-13T02:37:04.998Z,7.00
2019-05-13T02:38:19.426Z,8.60
2019-05-13T02:39:05.340Z,7.40
2019-05-13T02:40:05.485Z,7.30
2019-05-13T02:41:05.144Z,8.70
2019-05-13T02:42:05.177Z,6.70
2019-05-13T02:43:05.217Z,11.00
2019-05-13T02:44:05.249Z,6.80
2019-05-13T02:45:05.289Z,8.00
2019-05-13T02:46:05.321Z,6.20
2019-05-13T02:47:05.636Z,5.90
2019-05-13T02:48:05.410Z,6.60
2019-05-13T02:49:05.758Z,7.00
2019-05-13T02:50:05.575Z,5.50
2019-05-13T02:51:05.504Z,13.70
2019-05-13T02:52:05.591Z,7.20
2019-05-13T02:53:05.574Z,7.90
2019-05-13T02:54:05.609Z,6.30
2019-05-13T02:55:05.645Z,5.90
2019-05-13T02:56:05.684Z,7.00
2019-05-13T02:57:05.721Z,9.60
2019-05-13T02:58:05.764Z,7.00
2019-05-13T02:59:05.844Z,8.60
2019-05-13T03:00:05.828Z,7.30
2019-05-13T03:01:05.867Z,10.90
2019-05-13T03:02:05.897Z,6.80
2019-05-13T03:03:05.934Z,10.10
2019-05-13T03:04:06.082Z,8.20
2019-05-13T03:05:06.006Z,8.90
2019-05-13T03:06:06.046Z,7.80
2019-05-13T03:07:06.078Z,7.30
2019-05-13T03:08:06.126Z,6.90
2019-05-13T03:09:06.150Z,10.70
2019-05-13T03:10:06.193Z,6.10
2019-05-13T03:11:06.643Z,8.90
2019-05-13T03:12:06.258Z,11.20
2019-05-13T03:13:06.295Z,7.50
2019-05-13T03:14:06.332Z,6.60
2019-05-13T03:15:06.369Z,8.90
2019-05-13T03:16:06.402Z,6.30
2019-05-13T03:17:06.437Z,7.40
2019-05-13T03:18:06.482Z,7.00
2019-05-13T03:19:06.510Z,7.40
2019-05-13T03:20:06.577Z,9.10
2019-05-13T03:21:06.582Z,8.30
2019-05-13T03:22:06.617Z,8.60
2019-05-13T03:23:06.657Z,8.90
2019-05-13T03:24:06.691Z,6.50
2019-05-13T03:25:06.726Z,6.80
2019-05-13T03:26:06.761Z,6.80
2019-05-13T03:27:06.797Z,7.00
2019-05-13T03:28:06.834Z,6.80
2019-05-13T03:29:06.878Z,7.00
2019-05-13T03:30:06.914Z,7.90
2019-05-13T03:31:07.924Z,7.30
2019-05-13T03:32:07.682Z,6.40
2019-05-13T03:33:10.706Z,6.60
2019-05-13T03:34:07.715Z,8.10
2019-05-13T03:35:08.599Z,8.80
2019-05-13T03:36:08.427Z,8.60
2019-05-13T03:37:08.254Z,8.70
2019-05-13T03:38:07.193Z,6.50
2019-05-13T03:39:14.505Z,10.50
2019-05-13T03:40:07.263Z,11.20
2019-05-13T03:41:07.306Z,7.90
2019-05-13T03:42:07.338Z,10.20
2019-05-13T03:43:07.371Z,9.60
2019-05-13T03:44:07.408Z,10.60
2019-05-13T03:45:07.458Z,9.40
2019-05-13T03:46:07.479Z,9.80
2019-05-13T03:47:07.514Z,9.30
2019-05-13T03:48:07.563Z,7.10
2019-05-13T03:49:07.585Z,8.90
2019-05-13T03:50:07.625Z,8.80
2019-05-13T03:51:07.659Z,6.00
2019-05-13T03:52:07.696Z,9.60
2019-05-13T03:53:07.736Z,8.10
2019-05-13T03:54:07.768Z,6.70
2019-05-13T03:55:07.804Z,8.80
2019-05-13T03:56:07.837Z,9.10
2019-05-13T03:57:07.873Z,5.90
2019-05-13T03:58:07.915Z,9.70
2019-05-13T03:59:07.944Z,8.30
2019-05-13T04:00:07.982Z,5.80
2019-05-13T04:01:08.025Z,8.10
2019-05-13T04:02:08.055Z,5.80
2019-05-13T04:03:08.089Z,6.30
2019-05-13T04:04:08.124Z,8.20
2019-05-13T04:05:08.163Z,6.70
2019-05-13T04:06:08.197Z,5.70
2019-05-13T04:07:08.236Z,7.90
2019-05-13T04:08:08.271Z,6.30
2019-05-13T04:09:25.093Z,6.30
2019-05-13T04:10:08.341Z,9.20
2019-05-13T04:11:08.377Z,8.10
2019-05-13T04:12:08.416Z,7.20
2019-05-13T04:13:08.547Z,7.20
2019-05-13T04:14:08.483Z,6.70
2019-05-13T04:15:08.517Z,7.40
2019-05-13T04:16:08.555Z,6.90
2019-05-13T04:17:08.588Z,5.80
2019-05-13T04:18:08.626Z,5.80
2019-05-13T04:19:08.662Z,9.60
2019-05-13T04:20:08.702Z,15.30
2019-05-13T04:21:08.734Z,7.90
2019-05-13T04:22:08.771Z,6.50
2019-05-13T04:23:08.805Z,11.40
2019-05-13T04:24:12.007Z,9.50
2019-05-13T04:25:08.883Z,7.10
2019-05-13T04:26:08.921Z,7.10
2019-05-13T04:27:08.953Z,8.50
2019-05-13T04:28:08.984Z,7.90
2019-05-13T04:29:09.024Z,5.40
2019-05-13T04:30:09.064Z,6.30
2019-05-13T04:31:09.093Z,5.80
2019-05-13T04:32:12.327Z,5.60
2019-05-13T04:33:09.164Z,9.00
2019-05-13T04:34:12.091Z,7.70
2019-05-13T04:35:12.227Z,8.10
2019-05-13T04:36:12.861Z,6.90
2019-05-13T04:37:09.307Z,8.80
2019-05-13T04:38:12.446Z,8.40
2019-05-13T04:39:12.679Z,6.70
2019-05-13T04:40:12.614Z,8.40
2019-05-13T04:41:11.959Z,6.10
2019-05-13T04:42:12.253Z,7.90
2019-05-13T04:43:12.818Z,7.70
2019-05-13T04:44:12.849Z,8.70
2019-05-13T04:45:13.016Z,7.00
2019-05-13T04:46:13.595Z,5.70
2019-05-13T04:47:12.811Z,8.20
2019-05-13T04:48:12.569Z,5.90
2019-05-13T04:49:12.566Z,5.50
2019-05-13T04:50:12.561Z,6.40
2019-05-13T04:51:13.143Z,5.50
2019-05-13T04:52:13.128Z,7.70
2019-05-13T04:53:13.408Z,7.00
2019-05-13T04:54:12.771Z,9.80
2019-05-13T04:55:12.748Z,5.80
2019-05-13T04:56:13.270Z,5.50
2019-05-13T04:57:12.366Z,6.90
2019-05-13T04:58:13.069Z,5.20
2019-05-13T04:59:12.495Z,6.20
2019-05-13T05:00:12.901Z,5.30
2019-05-13T05:01:14.129Z,9.50
2019-05-13T05:02:13.240Z,7.00
2019-05-13T05:03:13.388Z,8.20
2019-05-13T05:04:21.423Z,9.50
2019-05-13T05:05:12.917Z,8.00
2019-05-13T05:06:12.027Z,5.90
2019-05-13T05:07:12.711Z,7.00
2019-05-13T05:08:12.027Z,6.80
2019-05-13T05:09:12.542Z,7.90
2019-05-13T05:10:21.399Z,5.50
2019-05-13T05:11:13.294Z,8.30
2019-05-13T05:12:12.466Z,7.00
2019-05-13T05:13:12.789Z,6.50
2019-05-13T05:14:11.967Z,6.20
2019-05-13T05:15:12.089Z,8.50
2019-05-13T05:16:12.950Z,9.10
2019-05-13T05:17:12.461Z,10.90
2019-05-13T05:18:11.653Z,7.90
2019-05-13T05:19:12.209Z,7.90
2019-05-13T05:20:12.226Z,7.50
2019-05-13T05:21:11.951Z,7.00
2019-05-13T05:22:13.276Z,7.90
2019-05-13T05:23:11.222Z,8.00
2019-05-13T05:24:11.452Z,6.00
2019-05-13T05:25:11.696Z,11.20
2019-05-13T05:26:11.670Z,7.40
2019-05-13T05:27:12.021Z,9.40
2019-05-13T05:28:11.296Z,6.50
2019-05-13T05:29:11.421Z,6.20
2019-05-13T05:30:11.476Z,7.00
2019-05-13T05:31:11.595Z,7.70
2019-05-13T05:32:12.340Z,5.00
2019-05-13T05:33:11.451Z,8.20
2019-05-13T05:34:11.619Z,7.20
2019-05-13T05:35:11.914Z,7.20
2019-05-13T05:36:11.810Z,6.70
2019-05-13T05:37:11.880Z,8.00
2019-05-13T05:38:12.100Z,7.80
2019-05-13T05:39:12.339Z,9.10
2019-05-13T05:40:12.353Z,7.70
2019-05-13T05:41:12.175Z,8.40
2019-05-13T05:42:11.664Z,7.00
2019-05-13T05:43:11.722Z,8.60
2019-05-13T05:44:12.549Z,5.10
2019-05-13T05:45:11.775Z,9.20
2019-05-13T05:46:11.828Z,7.90
2019-05-13T05:47:11.851Z,7.00
2019-05-13T05:48:11.951Z,8.60
2019-05-13T05:49:12.693Z,7.40
2019-05-13T05:50:12.268Z,8.90
2019-05-13T05:51:13.172Z,7.10
2019-05-13T05:52:12.459Z,7.00
2019-05-13T05:53:12.071Z,8.50
2019-05-13T05:54:14.607Z,10.50
2019-05-13T05:55:12.143Z,8.90
2019-05-13T05:56:12.180Z,8.30
2019-05-13T05:57:12.388Z,9.40
2019-05-13T05:58:12.255Z,8.80
2019-05-13T05:59:12.587Z,7.70
2019-05-13T06:00:12.329Z,7.60
2019-05-13T06:01:12.370Z,10.60
2019-05-13T06:02:12.522Z,9.30
2019-05-13T06:03:13.836Z,9.70
2019-05-13T06:04:12.785Z,9.10
2019-05-13T06:05:12.675Z,9.20
2019-05-13T06:06:12.761Z,12.70
2019-05-13T06:07:12.590Z,8.70
2019-05-13T06:08:12.633Z,9.90
2019-05-13T06:09:12.666Z,9.80
2019-05-13T06:10:12.703Z,8.10
2019-05-13T06:11:12.740Z,6.10
2019-05-13T06:12:12.778Z,9.90
2019-05-13T06:13:12.817Z,8.20
2019-05-13T06:14:12.852Z,6.60
2019-05-13T06:15:12.893Z,10.80
2019-05-13T06:16:12.932Z,9.60
2019-05-13T06:17:12.972Z,7.20
2019-05-13T06:18:13.005Z,5.90
2019-05-13T06:19:13.044Z,8.90
2019-05-13T06:20:13.530Z,10.30
2019-05-13T06:21:13.117Z,9.50
2019-05-13T06:22:13.162Z,6.30
2019-05-13T06:23:13.193Z,8.00
2019-05-13T06:24:13.240Z,6.70
2019-05-13T06:25:14.587Z,9.50
2019-05-13T06:26:13.457Z,11.40
2019-05-13T06:27:13.343Z,9.20
2019-05-13T06:28:13.384Z,9.50
2019-05-13T06:29:13.420Z,8.50
2019-05-13T06:30:13.460Z,7.40
2019-05-13T06:31:13.506Z,8.00
2019-05-13T06:32:21.482Z,8.00
2019-05-13T06:33:13.580Z,10.00
2019-05-13T06:34:13.624Z,10.10
2019-05-13T06:35:13.650Z,11.00
2019-05-13T06:36:13.688Z,11.80
2019-05-13T06:37:13.724Z,10.20
2019-05-13T06:38:13.814Z,9.50
2019-05-13T06:39:13.802Z,10.80
2019-05-13T06:40:13.846Z,10.60
2019-05-13T06:41:14.932Z,12.30
2019-05-13T06:42:13.919Z,8.60
2019-05-13T06:43:13.957Z,10.50
2019-05-13T06:44:13.994Z,7.60
2019-05-13T06:45:14.043Z,8.80
2019-05-13T06:46:14.074Z,9.70
2019-05-13T06:47:14.121Z,8.80
2019-05-13T06:48:14.151Z,10.70
2019-05-13T06:49:14.198Z,10.60
2019-05-13T06:50:14.226Z,8.20
2019-05-13T06:51:14.268Z,9.30
2019-05-13T06:52:14.404Z,9.30
2019-05-13T06:53:14.338Z,6.80
2019-05-13T06:54:14.378Z,9.50
2019-05-13T06:55:14.416Z,13.00
2019-05-13T06:56:14.456Z,10.00
2019-05-13T06:57:14.494Z,9.40
2019-05-13T06:58:14.533Z,9.40
2019-05-13T06:59:14.573Z,10.30
2019-05-13T07:00:14.609Z,10.60
2019-05-13T07:01:14.649Z,6.50
2019-05-13T07:02:14.687Z,10.20
2019-05-13T07:03:14.730Z,11.30
2019-05-13T07:04:14.765Z,11.00
2019-05-13T07:05:14.812Z,9.00
2019-05-13T07:06:14.846Z,12.60
2019-05-13T07:07:17.285Z,9.30
2019-05-13T07:08:14.921Z,9.40
2019-05-13T07:09:14.959Z,10.00
2019-05-13T07:10:15.001Z,8.70
2019-05-13T07:11:20.974Z,9.50
2019-05-13T07:12:15.075Z,8.90
2019-05-13T07:13:15.113Z,9.40
2019-05-13T07:14:15.163Z,8.10
2019-05-13T07:15:15.195Z,9.60
2019-05-13T07:16:15.236Z,10.40
2019-05-13T07:17:15.272Z,12.60
2019-05-13T07:18:16.333Z,9.00
2019-05-13T07:19:15.347Z,6.40
2019-05-13T07:20:15.397Z,9.80
2019-05-13T07:21:15.427Z,9.10
2019-05-13T07:22:15.466Z,11.70
2019-05-13T07:23:15.504Z,8.60
2019-05-13T07:24:15.546Z,8.00
2019-05-13T07:25:15.588Z,13.10
2019-05-13T07:26:15.620Z,9.90
2019-05-13T07:27:15.667Z,7.90
2019-05-13T07:28:15.698Z,7.80
2019-05-13T07:29:16.209Z,10.30
2019-05-13T07:30:15.777Z,8.20
2019-05-13T07:31:15.824Z,11.80
2019-05-13T07:32:15.856Z,9.70
2019-05-13T07:33:15.893Z,8.60
2019-05-13T07:34:15.936Z,9.70
2019-05-13T07:35:15.975Z,12.10
2019-05-13T07:36:16.012Z,9.10
2019-05-13T07:37:16.050Z,8.30
2019-05-13T07:38:16.090Z,10.60
2019-05-13T07:39:16.129Z,7.30
2019-05-13T07:40:16.171Z,11.70
2019-05-13T07:41:16.207Z,11.30
2019-05-13T07:42:16.256Z,9.50
2019-05-13T07:43:16.287Z,8.20
2019-05-13T07:44:16.335Z,8.40
2019-05-13T07:45:16.364Z,10.70
2019-05-13T07:46:16.410Z,6.50
2019-05-13T07:47:16.496Z,9.80
2019-05-13T07:48:20.944Z,9.90
2019-05-13T07:49:16.527Z,6.70
2019-05-13T07:50:16.563Z,10.40
2019-05-13T07:51:16.602Z,8.60
2019-05-13T07:52:16.655Z,7.60
2019-05-13T07:53:18.996Z,7.60
2019-05-13T07:54:16.722Z,6.90
2019-05-13T07:55:16.759Z,8.90
2019-05-13T07:56:16.799Z,5.60
2019-05-13T07:57:16.837Z,8.40
2019-05-13T07:58:16.884Z,8.40
2019-05-13T07:59:16.925Z,9.20
2019-05-13T08:00:16.963Z,9.50
2019-05-13T08:01:16.996Z,7.60
2019-05-13T08:02:17.056Z,7.40
2019-05-13T08:03:17.076Z,6.80
2019-05-13T08:04:22.452Z,8.70
2019-05-13T08:05:17.155Z,7.80
2019-05-13T08:06:17.194Z,6.60
2019-05-13T08:07:17.240Z,7.90
2019-05-13T08:08:17.277Z,6.30
2019-05-13T08:09:17.313Z,6.10
2019-05-13T08:10:17.353Z,7.20
2019-05-13T08:11:17.391Z,7.90
2019-05-13T08:12:17.534Z,7.50
2019-05-13T08:13:17.472Z,6.60
2019-05-13T08:14:17.512Z,5.80
2019-05-13T08:15:17.553Z,7.00
2019-05-13T08:16:17.592Z,9.90
2019-05-13T08:17:17.631Z,7.00
2019-05-13T08:18:17.671Z,5.90
2019-05-13T08:19:17.710Z,7.10
2019-05-13T08:20:17.760Z,5.40
2019-05-13T08:21:17.790Z,7.60
2019-05-13T08:22:17.894Z,6.80
2019-05-13T08:23:17.872Z,8.00
2019-05-13T08:24:17.908Z,7.40
2019-05-13T08:25:17.949Z,9.30
2019-05-13T08:26:17.988Z,4.80
2019-05-13T08:27:24.015Z,7.70
2019-05-13T08:28:18.071Z,6.70
2019-05-13T08:29:18.116Z,6.80
2019-05-13T08:30:18.567Z,7.20
2019-05-13T08:31:18.188Z,6.00
2019-05-13T08:32:18.229Z,8.40
2019-05-13T08:33:18.273Z,7.80
2019-05-13T08:34:18.310Z,7.70
2019-05-13T08:35:18.351Z,6.10
2019-05-13T08:36:18.390Z,7.90
2019-05-13T08:37:18.428Z,7.60
2019-05-13T08:38:18.473Z,8.40
2019-05-13T08:39:18.525Z,8.90
2019-05-13T08:40:20.372Z,7.80
2019-05-13T08:41:19.369Z,7.00
2019-05-13T08:42:20.106Z,7.60
2019-05-13T08:43:18.672Z,7.90
2019-05-13T08:44:21.453Z,7.30
2019-05-13T08:45:18.750Z,7.60
2019-05-13T08:46:18.796Z,5.80
2019-05-13T08:47:18.845Z,9.00
2019-05-13T08:48:18.879Z,8.30
2019-05-13T08:49:18.918Z,6.40
2019-05-13T08:50:21.846Z,5.00
2019-05-13T08:51:18.991Z,7.90
2019-05-13T08:52:19.032Z,8.90
2019-05-13T08:53:21.136Z,10.00
2019-05-13T08:54:21.805Z,7.20
2019-05-13T08:55:21.505Z,7.40
2019-05-13T08:56:21.601Z,7.90
2019-05-13T08:57:19.231Z,8.00
2019-05-13T08:58:21.116Z,6.80
2019-05-13T08:59:19.312Z,6.60
2019-05-13T09:00:21.460Z,7.80
2019-05-13T09:01:19.396Z,6.00
2019-05-13T09:02:21.978Z,7.50
2019-05-13T09:03:21.547Z,5.70
2019-05-13T09:04:22.099Z,10.30
2019-05-13T09:05:21.529Z,7.30
2019-05-13T09:06:21.964Z,6.30
2019-05-13T09:07:23.922Z,6.90
2019-05-13T09:08:22.173Z,8.00
2019-05-13T09:09:21.880Z,6.50
2019-05-13T09:10:21.464Z,4.90
2019-05-13T09:11:22.049Z,8.00
2019-05-13T09:12:29.505Z,7.10
2019-05-13T09:13:22.165Z,8.00
2019-05-13T09:14:21.949Z,9.30
2019-05-13T09:15:22.310Z,7.00
2019-05-13T09:16:21.449Z,8.50
2019-05-13T09:17:21.356Z,5.80
2019-05-13T09:18:22.797Z,9.30
2019-05-13T09:19:21.571Z,8.00
2019-05-13T09:20:22.013Z,5.60
2019-05-13T09:21:22.500Z,7.70
2019-05-13T09:22:21.358Z,6.30
2019-05-13T09:23:22.338Z,7.20
2019-05-13T09:24:26.104Z,8.60
2019-05-13T09:25:21.572Z,5.30
2019-05-13T09:26:22.563Z,6.10
2019-05-13T09:27:22.595Z,4.20
2019-05-13T09:28:21.804Z,3.80
2019-05-13T09:29:22.535Z,6.20
2019-05-13T09:30:22.268Z,4.20
2019-05-13T09:31:22.059Z,4.30
2019-05-13T09:32:21.568Z,3.70
2019-05-13T09:33:21.899Z,4.60
2019-05-13T09:34:22.164Z,4.50
2019-05-13T09:35:22.212Z,5.00
2019-05-13T09:36:21.745Z,3.80
2019-05-13T09:37:22.392Z,5.10
2019-05-13T09:38:22.188Z,4.60
2019-05-13T09:39:21.684Z,4.30
2019-05-13T09:40:22.328Z,4.40
2019-05-13T09:41:21.529Z,4.60
2019-05-13T09:42:21.744Z,7.40
2019-05-13T09:43:22.194Z,3.90
2019-05-13T09:44:21.868Z,3.30
2019-05-13T09:45:21.638Z,5.70
2019-05-13T09:46:22.525Z,5.90
2019-05-13T09:47:21.826Z,4.90
2019-05-13T09:48:22.458Z,4.10
2019-05-13T09:49:23.635Z,4.30
2019-05-13T09:50:29.431Z,4.10
2019-05-13T09:51:21.794Z,4.10
2019-05-13T09:52:22.543Z,3.80
2019-05-13T09:53:22.429Z,6.40
2019-05-13T09:54:22.266Z,6.00
2019-05-13T09:55:28.451Z,6.20
2019-05-13T09:56:22.415Z,3.60
2019-05-13T09:57:22.124Z,8.50
2019-05-13T09:58:22.572Z,5.50
2019-05-13T09:59:22.242Z,5.80
2019-05-13T10:00:21.960Z,5.30
2019-05-13T10:01:22.714Z,4.80
2019-05-13T10:02:21.884Z,3.90
2019-05-13T10:03:26.586Z,4.20
2019-05-13T10:04:22.357Z,3.50
2019-05-13T10:05:22.440Z,4.40
2019-05-13T10:06:22.330Z,3.80
2019-05-13T10:07:22.972Z,3.00
2019-05-13T10:08:22.261Z,3.10
2019-05-13T10:09:22.171Z,3.80
2019-05-13T10:10:22.507Z,3.60
2019-05-13T10:11:22.463Z,2.70
2019-05-13T10:12:24.332Z,3.50
2019-05-13T10:13:23.320Z,3.00
2019-05-13T10:14:23.002Z,4.40
2019-05-13T10:15:22.417Z,4.50
2019-05-13T10:16:22.457Z,1.80
2019-05-13T10:17:22.512Z,1.50
2019-05-13T10:18:22.538Z,2.30
2019-05-13T10:19:22.589Z,2.60
2019-05-13T10:20:22.651Z,1.70
2019-05-13T10:21:22.663Z,1.90
2019-05-13T10:22:22.720Z,3.30
2019-05-13T10:23:22.746Z,2.60
2019-05-13T10:24:22.803Z,1.90
2019-05-13T10:25:22.825Z,2.60
2019-05-13T10:26:22.976Z,3.50
2019-05-13T10:27:22.914Z,1.70
2019-05-13T10:28:22.952Z,1.90
2019-05-13T10:29:22.990Z,2.30
2019-05-13T10:30:23.031Z,2.60
2019-05-13T10:31:23.175Z,2.90
2019-05-13T10:32:23.114Z,2.80
2019-05-13T10:33:23.156Z,3.30
2019-05-13T10:34:23.197Z,2.10
2019-05-13T10:35:23.238Z,3.30
2019-05-13T10:36:23.279Z,3.10
2019-05-13T10:37:23.319Z,3.40
2019-05-13T10:38:27.556Z,3.50
2019-05-13T10:39:23.408Z,3.70
2019-05-13T10:40:23.445Z,2.60
2019-05-13T10:41:23.485Z,2.70
2019-05-13T10:42:23.535Z,2.20
2019-05-13T10:43:30.980Z,2.80
2019-05-13T10:44:23.616Z,1.90
2019-05-13T10:45:23.649Z,2.70
2019-05-13T10:46:23.700Z,2.40
2019-05-13T10:47:23.732Z,2.70
2019-05-13T10:48:23.786Z,3.90
2019-05-13T10:49:23.816Z,1.00
2019-05-13T10:50:27.616Z,3.10
2019-05-13T10:51:23.897Z,2.10
2019-05-13T10:52:23.938Z,2.80
2019-05-13T10:53:23.997Z,3.40
2019-05-13T10:54:24.020Z,3.10
2019-05-13T10:55:24.061Z,2.40
2019-05-13T10:56:24.103Z,2.20
2019-05-13T10:57:24.171Z,3.90
2019-05-13T10:58:24.187Z,2.80
2019-05-13T10:59:24.231Z,4.10
2019-05-13T11:00:24.290Z,2.30
2019-05-13T11:01:24.317Z,2.10
2019-05-13T11:02:24.355Z,2.70
2019-05-13T11:03:24.397Z,1.40
2019-05-13T11:04:24.535Z,3.60
2019-05-13T11:05:24.475Z,2.70
2019-05-13T11:06:24.523Z,4.60
2019-05-13T11:07:24.560Z,2.40
2019-05-13T11:08:24.599Z,2.60
2019-05-13T11:09:24.642Z,2.00
2019-05-13T11:10:24.683Z,3.60
2019-05-13T11:11:24.726Z,1.80
2019-05-13T11:12:28.463Z,2.10
2019-05-13T11:13:24.807Z,2.10
2019-05-13T11:14:24.848Z,3.40
2019-05-13T11:15:24.900Z,2.50
2019-05-13T11:16:24.940Z,2.20
2019-05-13T11:17:31.131Z,2.70
2019-05-13T11:18:25.035Z,2.00
2019-05-13T11:19:25.056Z,2.20
2019-05-13T11:20:25.100Z,4.60
2019-05-13T11:21:25.139Z,2.30
2019-05-13T11:22:25.182Z,2.80
2019-05-13T11:23:25.224Z,2.10
2019-05-13T11:24:25.270Z,4.30
2019-05-13T11:25:25.307Z,3.00
2019-05-13T11:26:25.350Z,3.00
2019-05-13T11:27:25.394Z,3.00
2019-05-13T11:28:25.431Z,2.00
2019-05-13T11:29:25.504Z,2.20
2019-05-13T11:30:25.520Z,2.30
2019-05-13T11:31:25.556Z,3.20
2019-05-13T11:32:25.600Z,3.10
2019-05-13T11:33:25.639Z,3.30
2019-05-13T11:34:25.682Z,3.20
2019-05-13T11:35:25.724Z,3.90
2019-05-13T11:36:25.765Z,2.70
2019-05-13T11:37:25.810Z,3.10
2019-05-13T11:38:25.847Z,3.80
2019-05-13T11:39:25.890Z,3.90
2019-05-13T11:40:25.932Z,2.30
2019-05-13T11:41:25.977Z,3.80
2019-05-13T11:42:26.016Z,3.30
2019-05-13T11:43:28.385Z,4.80
2019-05-13T11:44:26.102Z,3.70
2019-05-13T11:45:26.145Z,3.00
2019-05-13T11:46:26.182Z,2.10
2019-05-13T11:47:26.226Z,5.00
2019-05-13T11:48:26.268Z,4.10
2019-05-13T11:49:26.317Z,4.00
2019-05-13T11:50:26.349Z,2.50
2019-05-13T11:51:26.393Z,2.70
2019-05-13T11:52:26.432Z,4.30
2019-05-13T11:53:33.222Z,2.90
2019-05-13T11:54:26.516Z,3.40
2019-05-13T11:55:26.558Z,2.40
2019-05-13T11:56:26.601Z,3.20
2019-05-13T11:57:26.644Z,4.40
2019-05-13T11:58:26.684Z,4.30
2019-05-13T11:59:26.730Z,3.40
2019-05-13T12:00:26.770Z,2.00
2019-05-13T12:01:26.810Z,3.70
2019-05-13T12:02:26.863Z,2.40
2019-05-13T12:03:26.895Z,4.10
2019-05-13T12:04:26.940Z,2.70
2019-05-13T12:05:26.978Z,4.00
2019-05-13T12:06:27.018Z,2.70
2019-05-13T12:07:27.062Z,3.30
2019-05-13T12:08:27.104Z,2.90
2019-05-13T12:09:27.145Z,4.00
2019-05-13T12:10:27.188Z,2.50
2019-05-13T12:11:27.247Z,3.40
2019-05-13T12:12:30.695Z,3.20
2019-05-13T12:13:27.321Z,3.10
2019-05-13T12:14:56.819Z,3.40
2019-05-13T12:15:42.484Z,2.10
2019-05-13T12:16:27.441Z,2.70
2019-05-13T12:17:27.482Z,2.60
2019-05-13T12:18:27.528Z,2.70
2019-05-13T12:19:27.596Z,2.70
2019-05-13T12:20:27.609Z,3.80
2019-05-13T12:21:27.656Z,3.70
2019-05-13T12:22:27.694Z,3.60
2019-05-13T12:23:27.736Z,3.20
2019-05-13T12:24:27.780Z,2.90
2019-05-13T12:25:27.819Z,3.80
2019-05-13T12:26:27.862Z,4.50
2019-05-13T12:27:27.903Z,3.20
2019-05-13T12:28:27.946Z,3.30
2019-05-13T12:29:27.991Z,2.50
2019-05-13T12:30:28.029Z,2.30
2019-05-13T12:31:28.125Z,4.10
2019-05-13T12:32:28.117Z,3.30
2019-05-13T12:33:28.162Z,4.50
2019-05-13T12:34:28.198Z,4.10
2019-05-13T12:35:28.248Z,4.90
2019-05-13T12:36:28.284Z,3.50
2019-05-13T12:37:28.324Z,4.00
2019-05-13T12:38:28.372Z,2.20
2019-05-13T12:39:28.410Z,2.40
2019-05-13T12:40:28.489Z,2.50
2019-05-13T12:41:28.493Z,2.70
2019-05-13T12:42:28.538Z,3.40
2019-05-13T12:43:31.452Z,2.60
2019-05-13T12:44:28.621Z,3.60
2019-05-13T12:45:28.667Z,3.70
2019-05-13T12:46:28.706Z,3.30
2019-05-13T12:47:28.821Z,3.40
2019-05-13T12:48:28.803Z,2.30
2019-05-13T12:49:33.569Z,2.80
2019-05-13T12:50:28.876Z,4.10
2019-05-13T12:51:28.919Z,3.10
2019-05-13T12:52:32.303Z,4.10
2019-05-13T12:53:31.886Z,3.20
2019-05-13T12:54:32.281Z,5.00
2019-05-13T12:55:29.088Z,2.90
2019-05-13T12:56:32.833Z,3.70
2019-05-13T12:57:29.173Z,4.10
2019-05-13T12:58:33.525Z,2.70
2019-05-13T12:59:31.974Z,2.20
2019-05-13T13:00:29.300Z,2.40
2019-05-13T13:01:29.341Z,2.70
2019-05-13T13:02:32.367Z,2.10
2019-05-13T13:03:29.432Z,3.20
2019-05-13T13:04:32.645Z,2.70
2019-05-13T13:05:36.145Z,2.30
2019-05-13T13:06:36.617Z,3.80
2019-05-13T13:07:33.412Z,3.20
2019-05-13T13:08:42.315Z,2.90
2019-05-13T13:09:32.613Z,4.20
2019-05-13T13:10:33.137Z,3.90
2019-05-13T13:11:32.381Z,2.00
2019-05-13T13:12:36.073Z,3.20
2019-05-13T13:13:56.128Z,3.50
2019-05-13T13:14:38.233Z,2.50
2019-05-13T13:15:38.404Z,2.20
2019-05-13T13:16:34.774Z,2.30
2019-05-13T13:17:30.020Z,2.60